Accueil
METAR-TAF:

METAR-TAF

Aéroports :

Lee's Summit Municipal Airport

Lee's Summit, Missouri, États-Unis

latitude: 38-57-35N, longitude: 094-22-18W, altitude: 306 m

Observation

Le bulletin a été fait il y a 45 minutes, à 20:53 UTC
Vent 17 kt de sud avec des rafales jusqu'à 30 kt
Température 20°C
Humidité 40%
Pression 1010 hPa
Visibilité: 16.1 km
Quelques nuages à une hauteur de 12000 ft

METAR: KLXT 202053Z AUTO 18017G30KT 10SM FEW120 20/06 A2982 RMK AO2 PK WND 19030/2049 SLP095 T02000061 56021

Heure: 15:38 (21:38 UTC)


TAF: absent

Observations et prévisions météorologiques de plus de 4000 aéroports (messages METAR et TAF).

Les stations disponibles sont représentées par des disques jaunes et rouges sur la carte.

Passer la souris dessus pour voir le nom de la station.

Cliquer dessus pour voir les observations et prévisions météorologiques.

Pour changer de carte: cliquez sur les boutons verts avec une croix noire pour zoomer, sur le bouton vert avec un tiret pour effectuer un zoom arrière, ou sur les flèches vertes pour les cartes adjacentes.


METAR-TAF: